Time;durP1;ratioP1;P1;durP2;ratioP2;P2;SDS_P1;SDS_P2;PMS_P1;PMS_P2;Temp;Humidity;BMP_temperature;BMP_pressure;BME280_temperature;BME280_humidity;BME280_pressure;Samples;Min_cycle;Max_cycle;Signal;HPM_P1;HPM_P2
2022/05/19 00:01:52;;;;;;;9.13;2.70;;;;;;;10.76;41.18;100258.94;8204124;28;20059;-72
2022/05/19 00:05:53;;;;;;;7.25;2.92;;;;;;;10.77;40.74;100253.28;8204386;28;20480;-72
2022/05/19 00:09:54;;;;;;;7.90;2.92;;;;;;;10.77;40.83;100247.06;8205058;28;20447;-71
2022/05/19 00:13:55;;;;;;;10.35;2.78;;;;;;;10.75;40.57;100246.53;8204514;28;20055;-72
2022/05/19 00:17:56;;;;;;;12.73;3.22;;;;;;;10.78;40.70;100251.38;8204295;28;20059;-72
2022/05/19 00:21:58;;;;;;;7.93;2.80;;;;;;;10.73;40.55;100248.72;8203766;28;20070;-72
2022/05/19 00:25:59;;;;;;;8.85;3.15;;;;;;;10.70;40.49;100249.25;8203608;28;20042;-71
2022/05/19 00:30:00;;;;;;;6.63;3.00;;;;;;;10.64;40.73;100253.09;8204269;28;20037;-71
2022/05/19 00:34:02;;;;;;;10.15;2.80;;;;;;;10.61;40.69;100245.56;8203676;28;20170;-71
2022/05/19 00:38:03;;;;;;;12.35;3.65;;;;;;;10.56;40.81;100239.09;8204023;28;20069;-72
2022/05/19 00:46:28;;;;;;;7.70;3.22;;;;;;;10.47;40.93;100240.78;8215203;28;20043;-72
2022/05/19 00:50:34;;;;;;;12.30;3.42;;;;;;;10.45;41.29;100234.88;8202627;28;20048;-73
2022/05/19 00:54:41;;;;;;;13.57;3.80;;;;;;;10.41;41.42;100236.50;8203532;28;20061;-71
2022/05/19 00:59:10;;;;;;;12.38;3.80;;;;;;;10.35;41.51;100226.81;8201834;28;20412;-73
2022/05/19 01:03:13;;;;;;;8.18;3.38;;;;;;;10.30;41.87;100229.56;8182396;28;20059;-72
2022/05/19 01:07:27;;;;;;;10.38;3.75;;;;;;;10.27;41.88;100230.09;8203133;28;20046;-72
2022/05/19 01:11:29;;;;;;;7.60;3.63;;;;;;;10.20;42.42;100240.41;8201572;28;20110;-73
2022/05/19 01:15:33;;;;;;;12.95;4.35;;;;;;;10.14;42.20;100241.50;8199781;28;20043;-71
2022/05/19 01:19:46;;;;;;;11.75;4.05;;;;;;;10.11;42.46;100225.84;8201928;28;20062;-72
2022/05/19 01:24:12;;;;;;;9.75;4.10;;;;;;;10.05;42.70;100226.94;8199385;29;20107;-73
2022/05/19 01:28:14;;;;;;;14.65;4.70;;;;;;;9.99;42.97;100222.69;8195545;28;20043;-71
2022/05/19 01:32:26;;;;;;;10.27;3.88;;;;;;;9.92;43.38;100232.97;8201274;28;20432;-72
2022/05/19 01:36:28;;;;;;;15.27;4.20;;;;;;;9.88;43.15;100224.63;8200066;28;20487;-71
2022/05/19 01:40:59;;;;;;;8.60;4.25;;;;;;;9.75;43.89;100228.72;8201958;28;20528;-72
2022/05/19 01:45:09;;;;;;;9.50;4.50;;;;;;;9.67;44.18;100240.09;8202202;28;20411;-71
2022/05/19 01:49:26;;;;;;;10.88;4.18;;;;;;;9.65;44.25;100234.16;8201590;28;20051;-72
2022/05/19 01:53:36;;;;;;;12.70;4.35;;;;;;;9.58;44.48;100233.63;8199087;29;20566;-72
2022/05/19 01:58:06;;;;;;;11.07;4.75;;;;;;;9.58;44.45;100228.22;8199685;28;20055;-73
2022/05/19 02:02:17;;;;;;;10.85;4.53;;;;;;;9.54;44.53;100227.16;8129018;29;20064;-72
2022/05/19 02:06:31;;;;;;;9.27;4.28;;;;;;;9.49;44.59;100219.09;8134363;29;20698;-72
2022/05/19 02:10:36;;;;;;;10.55;4.45;;;;;;;9.45;44.94;100223.44;8133862;29;20063;-72
2022/05/19 02:14:43;;;;;;;9.05;4.18;;;;;;;9.40;45.17;100215.34;8134326;29;20135;-71
2022/05/19 02:18:44;;;;;;;12.52;4.85;;;;;;;9.39;45.02;100213.72;8133349;29;20048;-73
2022/05/19 02:22:45;;;;;;;15.63;4.43;;;;;;;9.31;45.52;100214.28;8133187;29;20072;-72
2022/05/19 02:26:46;;;;;;;11.00;4.10;;;;;;;9.26;45.84;100219.69;8133643;29;20044;-71
2022/05/19 02:30:47;;;;;;;9.27;4.60;;;;;;;9.22;45.87;100213.22;8131946;29;20051;-72
2022/05/19 02:34:49;;;;;;;9.38;4.50;;;;;;;9.18;46.29;100212.16;8133250;29;20056;-71
2022/05/19 02:38:50;;;;;;;12.18;4.80;;;;;;;9.14;46.28;100221.88;8165389;28;20222;-71
2022/05/19 02:42:51;;;;;;;17.60;5.00;;;;;;;9.09;46.59;100208.41;8182372;29;20056;-73
2022/05/19 02:46:52;;;;;;;8.75;4.70;;;;;;;8.98;47.23;100202.22;8200836;28;20066;-73
2022/05/19 02:50:53;;;;;;;12.30;4.95;;;;;;;8.94;47.00;100203.81;8199555;28;20075;-72
2022/05/19 02:54:53;;;;;;;13.88;4.78;;;;;;;8.89;47.34;100201.94;8200512;28;20424;-72
2022/05/19 02:58:55;;;;;;;12.77;5.38;;;;;;;8.80;48.04;100206.28;8213870;28;20051;-72
2022/05/19 03:02:57;;;;;;;15.70;5.55;;;;;;;8.75;48.24;100203.59;8199656;28;20090;-71
2022/05/19 03:06:58;;;;;;;11.52;5.20;;;;;;;8.67;48.65;100201.41;8200674;28;20578;-71
2022/05/19 03:10:59;;;;;;;10.43;4.75;;;;;;;8.66;48.59;100199.81;8200013;28;20051;-72
2022/05/19 03:15:00;;;;;;;11.98;5.55;;;;;;;8.63;48.82;100200.34;8213924;28;20044;-71
2022/05/19 03:19:02;;;;;;;16.67;4.72;;;;;;;8.57;49.15;100196.03;8200119;28;20530;-72
2022/05/19 03:23:03;;;;;;;16.15;4.88;;;;;;;8.56;49.49;100194.44;8197371;28;20047;-72
2022/05/19 03:27:05;;;;;;;18.85;5.35;;;;;;;8.55;49.47;100192.81;8198838;28;20046;-71
2022/05/19 03:31:08;;;;;;;12.30;5.15;;;;;;;8.48;50.17;100197.66;8199618;28;20058;-71
2022/05/19 03:35:10;;;;;;;9.48;4.47;;;;;;;8.46;50.17;100194.41;8199801;28;20051;-73
2022/05/19 03:39:15;;;;;;;12.43;5.18;;;;;;;8.42;51.12;100198.72;8203048;28;20102;-72
2022/05/19 03:43:16;;;;;;;9.82;4.57;;;;;;;8.40;51.50;100195.50;8205194;28;20461;-72
2022/05/19 03:47:17;;;;;;;13.63;5.25;;;;;;;8.41;51.52;100191.72;8205299;28;20110;-72
2022/05/19 03:51:23;;;;;;;14.00;4.93;;;;;;;8.47;51.65;100190.66;8205069;28;20044;-71
2022/05/19 03:55:24;;;;;;;12.70;5.15;;;;;;;8.55;51.30;100186.63;8204961;28;20059;-71
2022/05/19 03:59:25;;;;;;;16.15;4.80;;;;;;;8.56;52.04;100178.28;8206026;28;20443;-72
2022/05/19 04:03:26;;;;;;;10.57;4.80;;;;;;;8.63;52.52;100184.19;8213150;28;20101;-72
2022/05/19 04:07:27;;;;;;;9.95;5.15;;;;;;;8.70;52.60;100186.63;8231856;28;20163;-72
2022/05/19 04:11:28;;;;;;;30.77;5.30;;;;;;;8.73;52.91;100184.19;8205554;28;20137;-73
2022/05/19 04:15:29;;;;;;;11.05;4.70;;;;;;;8.81;53.36;100180.97;8204964;28;20055;-72
2022/05/19 04:19:30;;;;;;;10.80;5.22;;;;;;;8.95;52.82;100185.78;8204864;28;20055;-72
2022/05/19 04:23:32;;;;;;;13.23;4.80;;;;;;;9.09;53.06;100186.84;8201160;28;20523;-72
2022/05/19 04:27:33;;;;;;;12.57;4.82;;;;;;;9.17;52.78;100188.97;8203590;29;20058;-72
2022/05/19 04:31:34;;;;;;;10.93;4.65;;;;;;;9.29;52.85;100186.81;8203840;28;20080;-72
2022/05/19 04:35:36;;;;;;;16.13;4.85;;;;;;;9.43;52.60;100187.84;8204067;28;20043;-72
2022/05/19 04:39:37;;;;;;;13.00;4.30;;;;;;;9.52;53.02;100190.75;8204034;28;20059;-72
2022/05/19 04:43:39;;;;;;;11.30;5.07;;;;;;;9.63;52.87;100187.75;8203460;28;20554;-72
2022/05/19 04:47:40;;;;;;;10.68;4.57;;;;;;;9.81;52.69;100182.84;8203924;28;20051;-72
2022/05/19 04:51:42;;;;;;;11.05;4.78;;;;;;;9.92;52.46;100189.78;8203597;28;20388;-72
2022/05/19 04:55:43;;;;;;;14.18;5.20;;;;;;;10.01;52.37;100188.13;8202860;28;20103;-71
2022/05/19 04:59:44;;;;;;;9.15;4.20;;;;;;;10.14;51.96;100184.81;8217129;28;20117;-72
2022/05/19 05:03:45;;;;;;;11.75;5.03;;;;;;;10.22;52.48;100181.53;8201910;29;20130;-73
2022/05/19 05:07:46;;;;;;;12.82;4.53;;;;;;;10.34;51.89;100192.81;8202482;28;20051;-72
2022/05/19 05:11:47;;;;;;;13.00;5.20;;;;;;;10.47;51.68;100208.38;8216969;28;20607;-72
2022/05/19 05:15:49;;;;;;;12.57;5.45;;;;;;;10.62;51.48;100201.25;8200556;29;20058;-71
2022/05/19 05:19:49;;;;;;;11.95;5.10;;;;;;;10.68;51.55;100203.59;8216275;28;20484;-72
2022/05/19 05:23:51;;;;;;;14.05;4.75;;;;;;;10.79;51.50;100198.94;8202210;28;20078;-71
2022/05/19 05:27:51;;;;;;;14.57;4.82;;;;;;;10.92;51.77;100209.09;8202007;28;20075;-72
2022/05/19 05:31:57;;;;;;;10.35;4.68;;;;;;;11.00;51.62;100216.56;8184576;28;20396;-71
2022/05/19 05:35:58;;;;;;;17.60;5.13;;;;;;;11.09;51.68;100203.28;8201304;28;20078;-72
2022/05/19 05:39:59;;;;;;;11.70;4.57;;;;;;;11.19;51.61;100214.78;8202113;28;20114;-71
2022/05/19 05:44:00;;;;;;;10.93;4.13;;;;;;;11.29;51.54;100225.50;8202193;28;20058;-71
2022/05/19 05:48:01;;;;;;;15.38;4.85;;;;;;;11.41;51.97;100217.81;8216181;28;20063;-71
2022/05/19 05:52:04;;;;;;;11.55;4.70;;;;;;;11.58;51.35;100222.75;8202011;28;20047;-72
2022/05/19 05:56:06;;;;;;;10.25;4.22;;;;;;;11.73;50.87;100213.69;8201925;28;20565;-72
2022/05/19 06:00:08;;;;;;;12.73;4.47;;;;;;;11.88;50.90;100218.91;8201751;28;20052;-71
2022/05/19 06:04:10;;;;;;;16.23;4.32;;;;;;;12.00;50.80;100229.34;8201819;28;20059;-71
2022/05/19 06:08:11;;;;;;;10.60;3.97;;;;;;;12.14;50.48;100225.59;8201042;28;20134;-72
2022/05/19 06:12:12;;;;;;;9.55;4.07;;;;;;;12.21;50.48;100226.03;8201760;28;20044;-72
2022/05/19 06:16:13;;;;;;;15.38;4.10;;;;;;;12.35;50.57;100225.31;8201313;28;20043;-72
2022/05/19 06:20:16;;;;;;;13.38;4.10;;;;;;;12.51;50.46;100226.69;8201511;28;20063;-73
2022/05/19 06:24:17;;;;;;;16.80;3.85;;;;;;;12.64;49.85;100228.66;8200799;28;20109;-73
2022/05/19 06:28:18;;;;;;;13.43;3.83;;;;;;;12.74;50.58;100220.38;8201487;28;20045;-73
2022/05/19 06:32:19;;;;;;;8.38;3.80;;;;;;;12.88;50.36;100218.53;8200862;28;20447;-71
2022/05/19 06:36:20;;;;;;;9.73;4.07;;;;;;;13.03;50.39;100231.00;8198904;28;20515;-73
2022/05/19 06:40:21;;;;;;;12.50;4.00;;;;;;;13.17;50.44;100220.22;8201048;28;20147;-71
2022/05/19 06:44:23;;;;;;;14.50;3.85;;;;;;;13.31;50.51;100221.06;8200819;28;20668;-73
2022/05/19 06:48:23;;;;;;;9.30;3.65;;;;;;;13.50;50.23;100224.47;8200501;28;20062;-72
2022/05/19 06:52:29;;;;;;;10.13;3.20;;;;;;;13.65;49.94;100226.91;8215028;28;20051;-72
2022/05/19 06:56:30;;;;;;;7.78;3.15;;;;;;;13.81;49.47;100224.69;8214729;28;20542;-72
2022/05/19 07:00:32;;;;;;;12.75;4.57;;;;;;;13.96;49.40;100217.03;8199575;28;20055;-72
2022/05/19 07:04:37;;;;;;;12.57;3.60;;;;;;;14.12;49.48;100213.97;8198234;28;20419;-72
2022/05/19 07:08:38;;;;;;;11.50;3.60;;;;;;;14.27;49.40;100210.94;8165809;28;20055;-72
2022/05/19 07:12:39;;;;;;;10.63;3.63;;;;;;;14.40;49.46;100210.13;8199803;28;20107;-72
2022/05/19 07:16:43;;;;;;;7.13;3.95;;;;;;;14.59;49.48;100213.47;8204928;28;20142;-72
2022/05/19 07:20:44;;;;;;;9.80;3.42;;;;;;;14.83;49.76;100207.72;8205218;28;20043;-72
2022/05/19 07:24:46;;;;;;;6.03;3.40;;;;;;;15.02;49.83;100199.34;8204781;28;20062;-71
2022/05/19 07:28:48;;;;;;;7.63;3.10;;;;;;;15.17;49.60;100207.13;8204794;28;20488;-73
2022/05/19 07:32:49;;;;;;;9.35;3.25;;;;;;;15.38;49.37;100213.66;8204115;28;20388;-72
2022/05/19 07:36:49;;;;;;;11.27;3.25;;;;;;;15.59;49.48;100214.72;8204760;28;20046;-72
2022/05/19 07:40:54;;;;;;;6.70;2.88;;;;;;;15.80;48.71;100219.59;8205121;28;20086;-73
2022/05/19 07:44:55;;;;;;;7.50;2.70;;;;;;;16.01;47.36;100209.72;8219861;28;20079;-73
2022/05/19 07:48:57;;;;;;;10.35;2.55;;;;;;;16.19;46.55;100222.22;8205953;28;20051;-72
2022/05/19 07:52:58;;;;;;;11.93;2.65;;;;;;;16.39;45.87;100227.06;8204476;28;20529;-74
2022/05/19 07:57:00;;;;;;;13.45;2.78;;;;;;;16.62;46.34;100213.28;8205623;28;20102;-73
2022/05/19 08:01:01;;;;;;;7.75;2.65;;;;;;;16.84;46.06;100215.84;8203615;28;20776;-72
2022/05/19 08:05:04;;;;;;;6.65;2.47;;;;;;;17.05;45.86;100211.31;8205406;28;20070;-73
2022/05/19 08:10:20;;;;;;;10.25;2.47;;;;;;;17.23;43.48;100218.34;8205483;28;20035;-72
2022/05/19 08:17:48;;;;;;;29.55;2.65;;;;;;;17.59;43.88;100214.34;8173474;29;20047;-73
2022/05/19 08:21:49;;;;;;;7.13;2.65;;;;;;;17.76;43.95;100214.31;8204331;28;20054;-74
2022/05/19 08:25:50;;;;;;;12.48;2.13;;;;;;;18.02;42.10;100212.22;8203051;28;20043;-71
2022/05/19 08:29:51;;;;;;;10.60;2.20;;;;;;;18.19;41.50;100205.03;8201145;29;20114;-73
2022/05/19 08:33:58;;;;;;;15.95;2.50;;;;;;;18.32;41.90;100193.03;8203389;28;20495;-72
2022/05/19 08:37:59;;;;;;;7.30;2.25;;;;;;;18.52;40.49;100192.22;8203269;28;20059;-73
2022/05/19 08:42:03;;;;;;;11.68;1.83;;;;;;;18.77;40.92;100191.19;8203094;28;20066;-72
2022/05/19 08:46:05;;;;;;;8.98;2.08;;;;;;;19.07;39.83;100191.06;8201668;29;20488;-71
2022/05/19 08:50:10;;;;;;;7.05;2.08;;;;;;;19.27;39.70;100190.19;8217856;28;20525;-72
2022/05/19 08:54:13;;;;;;;9.02;2.10;;;;;;;19.44;38.97;100184.50;8217498;28;20055;-72
2022/05/19 08:58:34;;;;;;;5.65;2.08;;;;;;;19.67;38.75;100188.41;8217324;28;20434;-72
2022/05/19 09:02:51;;;;;;;6.05;2.05;;;;;;;19.93;36.72;100176.31;8217310;28;20397;-72
2022/05/19 09:11:47;;;;;;;10.95;2.08;;;;;;;20.35;37.04;100185.84;8201259;28;20051;-72
2022/05/19 09:15:49;;;;;;;7.18;2.40;;;;;;;20.59;36.77;100180.25;8201913;28;20056;-72
2022/05/19 09:19:54;;;;;;;7.57;2.05;;;;;;;20.84;36.55;100174.63;8215851;28;20134;-72
2022/05/19 09:23:55;;;;;;;8.98;1.80;;;;;;;20.91;33.79;100185.81;8216680;28;20059;-72
2022/05/19 09:27:59;;;;;;;11.30;2.13;;;;;;;20.96;34.42;100177.31;8200383;28;20133;-72
2022/05/19 09:32:12;;;;;;;2.88;1.50;;;;;;;21.12;34.50;100172.66;8201465;28;20335;-72
2022/05/19 09:36:15;;;;;;;37.90;3.03;;;;;;;21.34;34.41;100166.59;8200612;28;20047;-72
2022/05/19 09:40:22;;;;;;;7.70;1.77;;;;;;;21.54;34.71;100152.91;8214963;28;20059;-72
2022/05/19 09:44:29;;;;;;;4.50;2.05;;;;;;;21.70;34.15;100150.94;8201272;28;20061;-72
2022/05/19 09:48:37;;;;;;;9.10;1.63;;;;;;;21.93;34.54;100143.63;8198958;28;20459;-73
2022/05/19 09:52:41;;;;;;;4.55;1.73;;;;;;;21.99;31.92;100136.72;8215725;28;20058;-73
2022/05/19 09:56:50;;;;;;;3.17;1.67;;;;;;;22.10;32.49;100134.19;8200857;29;20388;-72
2022/05/19 10:00:54;;;;;;;14.45;1.88;;;;;;;22.29;32.91;100132.25;8201320;28;20075;-73
2022/05/19 10:04:57;;;;;;;6.13;2.08;;;;;;;22.35;32.69;100120.94;8200688;28;20051;-73
2022/05/19 10:09:04;;;;;;;5.35;1.70;;;;;;;22.45;32.01;100120.34;8200608;28;20047;-73
2022/05/19 10:13:11;;;;;;;12.07;1.92;;;;;;;22.45;30.57;100114.84;8199260;29;20051;-73
2022/05/19 10:17:21;;;;;;;9.77;1.90;;;;;;;22.64;31.10;100117.56;8214886;28;20047;-73
2022/05/19 10:21:54;;;;;;;5.38;1.92;;;;;;;22.70;30.43;100110.59;8215088;28;20051;-73
2022/05/19 10:26:11;;;;;;;7.93;1.67;;;;;;;22.86;29.60;100105.81;8215209;28;20054;-73
2022/05/19 10:35:02;;;;;;;5.15;1.60;;;;;;;23.25;29.17;100097.41;8211014;28;20522;-73
2022/05/19 10:39:37;;;;;;;36.13;2.00;;;;;;;23.53;27.68;100092.34;8195534;28;20055;-73
2022/05/19 10:43:51;;;;;;;5.28;1.50;;;;;;;23.61;28.38;100083.03;8198803;28;20047;-72
2022/05/19 10:48:04;;;;;;;5.57;1.42;;;;;;;23.73;27.07;100077.31;8199625;28;20399;-73
2022/05/19 10:52:17;;;;;;;6.60;1.50;;;;;;;23.94;27.64;100085.88;8205959;28;20039;-73
2022/05/19 10:56:57;;;;;;;3.33;1.50;;;;;;;23.99;27.06;100071.75;8205279;28;20059;-73
2022/05/19 11:01:46;;;;;;;6.45;1.60;;;;;;;23.99;25.81;100063.47;8201796;28;20047;-73
2022/05/19 11:06:25;;;;;;;8.82;1.50;;;;;;;24.21;26.11;100067.31;8133182;29;20520;-73
2022/05/19 11:11:11;;;;;;;1.93;1.20;;;;;;;24.36;25.63;100057.22;8122875;29;20044;-72
2022/05/19 11:15:21;;;;;;;4.57;1.70;;;;;;;24.44;23.36;100050.56;8015044;29;20061;-73
2022/05/19 11:19:55;;;;;;;9.23;1.75;;;;;;;24.66;24.16;100055.16;8014843;29;20085;-72
2022/05/19 11:24:04;;;;;;;10.15;1.80;;;;;;;24.72;23.48;100042.59;7999227;29;20069;-72
2022/05/19 11:28:45;;;;;;;4.75;1.75;;;;;;;24.83;23.32;100032.41;8014468;29;20050;-72
2022/05/19 11:32:52;;;;;;;6.15;1.70;;;;;;;25.08;22.99;100020.78;7953956;29;20075;-74
2022/05/19 11:37:17;;;;;;;7.70;1.80;;;;;;;24.97;22.03;100023.47;7938612;29;20062;-74
2022/05/19 11:41:23;;;;;;;3.88;1.33;;;;;;;25.27;23.07;100023.31;8019478;29;20057;-73
2022/05/19 11:45:52;;;;;;;6.80;1.30;;;;;;;25.40;21.88;100015.47;8048061;29;20057;-73
2022/05/19 11:59:12;;;;;;;9.23;1.63;;;;;;;25.78;21.96;100008.59;8136216;29;20641;-74
2022/05/19 12:03:28;;;;;;;3.22;1.42;;;;;;;25.80;20.36;99997.94;8134190;29;20528;-74
2022/05/19 12:07:54;;;;;;;7.18;1.50;;;;;;;25.87;21.18;99973.03;8165566;28;20054;-73
2022/05/19 12:12:07;;;;;;;6.78;1.50;;;;;;;25.91;20.77;99974.63;8182950;28;20043;-73
2022/05/19 12:16:10;;;;;;;6.15;1.58;;;;;;;26.06;21.50;99975.47;8220804;28;20077;-73
2022/05/19 12:20:32;;;;;;;9.00;1.60;;;;;;;26.34;21.92;99977.53;8231225;28;20047;-73
2022/05/19 12:24:42;;;;;;;5.47;1.27;;;;;;;26.51;21.38;99978.72;8223382;28;20051;-73
2022/05/19 12:29:14;;;;;;;3.10;1.35;;;;;;;26.59;21.09;99963.72;8221815;28;20043;-72
2022/05/19 12:33:28;;;;;;;8.10;1.90;;;;;;;26.59;20.91;99963.72;8215447;28;20047;-73
2022/05/19 12:37:50;;;;;;;5.85;1.60;;;;;;;26.63;21.38;99948.66;8199823;28;20113;-74
2022/05/19 12:41:50;;;;;;;6.10;1.83;;;;;;;26.85;22.13;99953.03;8201627;29;20059;-73
2022/05/19 12:45:54;;;;;;;5.22;1.30;;;;;;;26.88;19.29;99954.22;8215952;28;20059;-74
2022/05/19 12:50:03;;;;;;;4.57;1.20;;;;;;;26.69;18.96;99946.31;8199314;29;20047;-75
2022/05/19 12:54:08;;;;;;;3.67;1.50;;;;;;;26.79;19.89;99945.50;8202365;28;20058;-74
2022/05/19 12:58:42;;;;;;;3.72;1.60;;;;;;;26.79;19.11;99939.94;8195608;28;20043;-75
2022/05/19 13:03:00;;;;;;;7.63;1.40;;;;;;;26.93;18.12;99939.97;8200321;28;20510;-73
2022/05/19 13:07:25;;;;;;;5.45;1.15;;;;;;;26.98;18.84;99942.31;8249757;28;20510;-73
2022/05/19 13:11:36;;;;;;;5.93;1.60;;;;;;;27.24;19.19;99916.91;8212873;28;20096;-74
2022/05/19 13:15:53;;;;;;;49.25;2.90;;;;;;;27.48;18.36;99920.00;8256069;28;20154;-74
2022/05/19 13:19:58;;;;;;;6.80;1.35;;;;;;;27.52;18.29;99909.69;8226669;28;20058;-73
2022/05/19 13:24:06;;;;;;;5.97;1.90;;;;;;;27.55;19.24;99908.88;8261807;28;20129;-74
2022/05/19 13:32:37;;;;;;;7.00;1.83;;;;;;;29.30;17.17;99898.75;8261543;28;19968;-73
2022/05/19 13:36:38;;;;;;;5.20;1.50;;;;;;;30.26;17.22;99898.25;8182366;28;20144;-73
2022/05/19 13:40:41;;;;;;;6.60;1.55;;;;;;;31.02;16.67;99902.13;8196513;28;20081;-74
2022/05/19 13:44:47;;;;;;;8.68;1.95;;;;;;;31.62;16.50;99897.38;8197006;28;20447;-74
2022/05/19 13:48:54;;;;;;;2.65;1.20;;;;;;;32.88;16.05;99898.31;8200125;28;20055;-75
2022/05/19 13:53:04;;;;;;;6.27;1.40;;;;;;;33.56;15.25;99891.59;8196075;28;20047;-75
2022/05/19 13:57:08;;;;;;;5.43;1.45;;;;;;;34.31;15.08;99887.28;8199549;28;20045;-75
2022/05/19 14:01:19;;;;;;;3.05;1.23;;;;;;;35.01;14.60;99875.63;8199707;28;20057;-75
2022/05/19 14:05:27;;;;;;;4.32;1.20;;;;;;;35.15;13.44;99879.94;8199382;29;20065;-75
2022/05/19 14:09:59;;;;;;;6.38;1.83;;;;;;;35.62;13.90;99867.75;8200385;28;20051;-75
2022/05/19 14:14:00;;;;;;;4.70;1.40;;;;;;;36.46;13.66;99857.13;8200227;28;20055;-75
2022/05/19 14:18:07;;;;;;;6.18;1.55;;;;;;;36.85;14.01;99859.06;8200009;28;20163;-74
2022/05/19 14:22:18;;;;;;;3.83;1.25;;;;;;;36.05;14.61;99844.38;8200019;28;20066;-75
2022/05/19 14:26:24;;;;;;;4.45;1.63;;;;;;;36.39;13.81;99842.13;8199060;28;20059;-74
2022/05/19 14:30:32;;;;;;;7.05;1.27;;;;;;;36.74;13.27;99839.06;8198262;28;20457;-75
2022/05/19 14:34:38;;;;;;;5.40;1.13;;;;;;;36.29;13.85;99832.13;8199402;28;20052;-75
2022/05/19 14:38:46;;;;;;;12.95;1.73;;;;;;;36.87;12.81;99831.22;8198369;28;20051;-77
2022/05/19 14:43:05;;;;;;;4.25;1.40;;;;;;;36.32;13.48;99825.56;8167627;28;20058;-77
2022/05/19 14:47:06;;;;;;;6.20;1.60;;;;;;;35.22;14.93;99829.16;8199091;28;20043;-72
2022/05/19 14:51:13;;;;;;;6.55;1.60;;;;;;;34.68;15.07;99824.72;8199510;28;20466;-72
2022/05/19 14:55:40;;;;;;;3.03;1.35;;;;;;;34.73;15.23;99821.34;8216081;28;20525;-71
2022/05/19 15:00:00;;;;;;;3.72;1.58;;;;;;;34.91;15.57;99808.66;8117050;29;20052;-72
2022/05/19 15:04:01;;;;;;;2.13;1.15;;;;;;;34.55;16.13;99809.91;8131525;29;20052;-72
2022/05/19 15:08:16;;;;;;;7.53;1.63;;;;;;;33.91;16.07;99800.88;8101106;29;20056;-72
2022/05/19 15:12:17;;;;;;;5.47;1.98;;;;;;;34.01;16.67;99798.16;8128845;29;20650;-72
2022/05/19 15:16:21;;;;;;;7.32;1.50;;;;;;;35.22;15.13;99800.31;8108345;29;20063;-72
2022/05/19 15:20:23;;;;;;;10.73;1.70;;;;;;;35.82;15.37;99797.94;8119661;29;20625;-73
2022/05/19 15:24:24;;;;;;;3.00;1.30;;;;;;;35.76;14.38;99794.16;8124971;29;20048;-72
2022/05/19 15:28:26;;;;;;;3.65;1.10;;;;;;;35.28;15.29;99793.63;8130083;29;20496;-74
2022/05/19 15:32:27;;;;;;;4.75;1.60;;;;;;;34.88;14.61;99784.31;8115753;29;20146;-73
2022/05/19 15:36:28;;;;;;;5.53;1.45;;;;;;;34.16;15.68;99777.59;8152910;28;20063;-72
2022/05/19 15:40:29;;;;;;;4.30;1.60;;;;;;;33.43;15.99;99776.00;8235575;28;20058;-72
2022/05/19 15:44:30;;;;;;;2.97;1.50;;;;;;;32.16;17.64;99781.16;8208198;28;20050;-72
2022/05/19 15:48:31;;;;;;;5.13;1.20;;;;;;;30.82;18.77;99773.03;8217647;28;20100;-73
2022/05/19 15:52:33;;;;;;;6.88;1.55;;;;;;;30.19;19.42;99764.66;8211238;28;20491;-72
2022/05/19 15:56:35;;;;;;;2.70;1.58;;;;;;;30.02;19.76;99754.63;8205355;28;20043;-72
2022/05/19 16:00:36;;;;;;;8.98;2.03;;;;;;;30.17;19.56;99747.56;8233353;28;20121;-72
2022/05/19 16:04:37;;;;;;;5.28;1.50;;;;;;;30.06;19.98;99739.41;8208829;28;20075;-72
2022/05/19 16:08:39;;;;;;;7.63;1.42;;;;;;;30.04;20.15;99735.47;8214122;28;20134;-72
2022/05/19 16:12:44;;;;;;;7.13;1.45;;;;;;;30.28;20.23;99734.25;8211742;28;20050;-72
2022/05/19 16:16:45;;;;;;;31.25;2.17;;;;;;;30.54;20.65;99729.78;8214856;28;20502;-72
2022/05/19 16:20:46;;;;;;;5.18;1.63;;;;;;;30.57;20.91;99729.69;8204581;28;20059;-73
2022/05/19 16:24:47;;;;;;;9.00;1.50;;;;;;;29.86;21.48;99726.63;8219929;28;20055;-72
2022/05/19 16:28:49;;;;;;;23.38;2.58;;;;;;;29.55;22.09;99732.28;8204853;28;20130;-73
2022/05/19 16:32:51;;;;;;;6.10;1.33;;;;;;;29.50;22.61;99729.19;8201016;28;20059;-74
2022/05/19 16:36:55;;;;;;;4.55;1.55;;;;;;;29.15;21.86;99713.78;8205604;28;20047;-72
2022/05/19 16:40:57;;;;;;;7.30;1.92;;;;;;;29.09;22.03;99709.88;8185226;28;20051;-72
2022/05/19 16:44:58;;;;;;;6.20;2.20;;;;;;;28.24;22.70;99710.91;8201107;28;20055;-72
2022/05/19 16:49:02;;;;;;;7.47;1.70;;;;;;;27.68;23.19;99708.25;8216768;28;20050;-71
2022/05/19 16:53:04;;;;;;;6.40;1.73;;;;;;;27.16;23.70;99715.72;8200230;28;20538;-71
2022/05/19 17:01:29;;;;;;;6.70;1.80;;;;;;;26.60;24.74;99702.09;8184031;28;20536;-72
2022/05/19 17:05:31;;;;;;;10.18;1.70;;;;;;;26.34;25.53;99698.66;8166695;29;20047;-73
2022/05/19 17:09:32;;;;;;;6.93;1.63;;;;;;;26.06;26.14;99698.69;8167799;29;20519;-72
2022/05/19 17:13:33;;;;;;;3.80;1.60;;;;;;;25.84;26.93;99691.59;8167084;29;20071;-74
2022/05/19 17:17:35;;;;;;;3.47;1.60;;;;;;;25.68;27.67;99677.41;8183226;29;20059;-75
2022/05/19 17:21:36;;;;;;;6.43;1.73;;;;;;;25.57;27.76;99694.78;8167235;29;20055;-73
2022/05/19 17:25:39;;;;;;;5.75;1.52;;;;;;;25.33;28.41;99689.97;8161213;29;20110;-75
2022/05/19 17:29:40;;;;;;;4.05;1.70;;;;;;;25.29;29.10;99699.44;8171937;29;20199;-74
2022/05/19 17:33:42;;;;;;;4.75;1.80;;;;;;;25.18;29.13;99704.97;8166941;29;20436;-74
2022/05/19 17:37:43;;;;;;;7.13;1.75;;;;;;;25.05;29.20;99695.47;8183513;29;20051;-75
2022/05/19 17:41:44;;;;;;;12.40;1.77;;;;;;;24.80;30.04;99696.16;8202592;28;20083;-74
2022/05/19 17:45:46;;;;;;;3.17;1.80;;;;;;;24.63;30.54;99696.09;8202231;28;20051;-74
2022/05/19 17:49:47;;;;;;;5.50;2.03;;;;;;;24.52;30.93;99696.06;8201633;28;20074;-77
2022/05/19 17:53:48;;;;;;;2.75;1.63;;;;;;;24.36;31.61;99692.81;8211185;28;20055;-74
2022/05/19 17:57:50;;;;;;;11.13;5.72;;;;;;;24.07;32.67;99685.53;8199894;28;20062;-74
2022/05/19 18:01:51;;;;;;;20.70;10.65;;;;;;;23.70;33.04;99678.19;8170505;29;20530;-75
2022/05/19 18:05:52;;;;;;;41.80;27.17;;;;;;;23.42;33.77;99683.44;8178753;28;20427;-74
2022/05/19 18:09:53;;;;;;;29.05;17.88;;;;;;;23.31;33.46;99682.56;8213222;28;20050;-75
2022/05/19 18:13:56;;;;;;;32.63;17.38;;;;;;;23.23;33.91;99680.88;8206853;28;20175;-73
2022/05/19 18:22:16;;;;;;;14.45;8.55;;;;;;;22.94;34.34;99686.13;8200649;28;20137;-74
2022/05/19 18:26:20;;;;;;;9.40;3.80;;;;;;;22.75;34.34;99678.03;8199849;28;20507;-74
2022/05/19 18:30:22;;;;;;;14.10;4.20;;;;;;;22.54;34.78;99683.25;8213937;28;20051;-75
2022/05/19 18:34:22;;;;;;;7.28;4.15;;;;;;;22.30;35.26;99695.53;8200077;28;20059;-75
2022/05/19 18:38:24;;;;;;;11.27;3.38;;;;;;;22.07;35.59;99686.56;8213774;28;20073;-74
2022/05/19 18:46:44;;;;;;;25.35;12.70;;;;;;;21.64;36.64;99701.56;8200004;28;20519;-74
2022/05/19 18:50:45;;;;;;;36.85;23.13;;;;;;;21.43;36.94;99697.31;8199846;28;20047;-74
2022/05/19 18:54:48;;;;;;;34.22;21.13;;;;;;;21.29;37.37;99705.31;8197346;28;20574;-73
2022/05/19 18:58:54;;;;;;;26.40;13.75;;;;;;;21.09;37.59;99714.72;8199551;28;20051;-73
2022/05/19 19:02:56;;;;;;;31.65;12.45;;;;;;;20.96;38.01;99718.78;8213568;28;20455;-73
2022/05/19 19:06:57;;;;;;;25.08;6.45;;;;;;;20.83;38.25;99717.34;8204124;28;20114;-73
2022/05/19 19:10:59;;;;;;;14.13;4.40;;;;;;;20.84;38.32;99713.44;8209627;28;20566;-74
2022/05/19 19:15:00;;;;;;;12.63;3.92;;;;;;;20.81;38.55;99725.16;8237833;28;20050;-73
2022/05/19 19:19:04;;;;;;;11.27;3.47;;;;;;;20.84;38.40;99714.22;8206640;28;20051;-73
2022/05/19 19:23:07;;;;;;;11.20;3.35;;;;;;;20.78;38.60;99706.66;8204998;28;20047;-75
2022/05/19 19:27:09;;;;;;;14.73;3.97;;;;;;;20.71;38.92;99703.78;8204516;28;20047;-74
2022/05/19 19:31:10;;;;;;;11.68;3.58;;;;;;;20.57;39.17;99699.56;8204565;28;20461;-73
2022/05/19 19:35:12;;;;;;;7.45;3.53;;;;;;;20.54;39.13;99686.59;8205677;28;20134;-75
2022/05/19 19:39:14;;;;;;;12.40;3.25;;;;;;;20.50;39.11;99685.72;8187888;28;20047;-74
2022/05/19 19:43:20;;;;;;;8.20;3.30;;;;;;;20.48;39.23;99682.53;8199258;29;20507;-73
2022/05/19 19:47:21;;;;;;;7.85;2.67;;;;;;;20.44;39.51;99684.41;8196280;28;20439;-74
2022/05/19 19:55:42;;;;;;;10.43;2.40;;;;;;;20.30;39.56;99678.59;8180912;29;20054;-75